NIEUW!!! Volg onze weer- en natuurfoto's op Instagram @ weerstationmaaseik.be

WS Maaseik 1 Meer informatie WS Maaseik 1


WS Maaseik 2 Meer informatie WS Maaseik 2


waarschuwing voor Regen Meer informatie rain snow radar


Bezoek onze andere website:

Vorige versie
weerstation Maaseik


Bezoek ook eens deze sites:

Weerstation Geleen



Regen van: 26-09-2020 18:20 tot: 27-09-2020 05:59 waarschuwing voor: Regen niveau: Geel info button

METAR rapporten vliegvelden

   
EBBR - Brussels International Airport, Belgium
Afstand tot: W 14 km
Gewijzigd: 26-09-2020 18:50
Licht bewolkt  
Licht bewolkt  
   Wind: Westen 13 km/h
Wind: Westen 13 km/h
Temperatuur: 11°C
Dauwpunt: 9°C
Vochtigheid: 88%
Barometer: 1002 hPa
Bewolking: Few Clouds
Zicht: meer dan 10 km
Bewolking: Licht bewolkt 1800 ft
EBBR 261650Z 28007KT 9999 FEW018TCU 11/09 Q1002 NOSIG
EBBE - Beauvechain (Bevekom), Belgium
Afstand tot: ZZO 17 km
Gewijzigd: 26-09-2020 18:55
Bewolking  
Bewolking  
   Wind: Westen 13 km/h
Wind: Westen 13 km/h
Temperatuur: 11°C
Dauwpunt: 9°C
Vochtigheid: 88%
Barometer: 1001 hPa
Bewolking: Overcast
Zicht: meer dan 10 km
Bewolking: Licht bewolkt 1500 ft,
Grotendeels bewolkt 5500 ft,
Bewolking 7000 ft
EBBE 261655Z AUTO 28007KT 9999 FEW015/// BKN055/// OVC070/// 11/09 Q1001 BLU
EBDT - Schaffen, Belgium
Afstand tot: ONO 29 km
Gewijzigd: 26-09-2020 18:55
Grotendeels bewolkt  
Grotendeels bewolkt  
   Wind: Westen 14.8 km/h
Wind: Westen 14.8 km/h
Temperatuur: 13°C
Dauwpunt: 10°C
Vochtigheid: 82%
Barometer: 1001 hPa
Bewolking: Mostly Cloudy
Zicht: meer dan 10 km
Bewolking: Licht bewolkt 13000 ft,
Grotendeels bewolkt 20000 ft
EBDT 261655Z AUTO 28008KT 9999 FEW130/// BKN200/// 13/10 Q1001 BLU
EBAW - Antwerp/Deurne, Belgium
Afstand tot: NNW 38 km
Gewijzigd: 26-09-2020 18:50
Licht bewolkt  
Licht bewolkt  
   Wind: Westen 7.4 km/h
Wind: Westen 7.4 km/h
Temperatuur: 12°C
Dauwpunt: 10°C
Vochtigheid: 88%
Barometer: 1002 hPa
Bewolking: Few Clouds
Zicht: meer dan 10 km
Bewolking: Licht bewolkt 2500 ft
EBAW 261650Z 27004KT 250V320 9999 FEW025 12/10 Q1002 NOSIG
EBCI - Charleroi/Gosselies, Belgium
Afstand tot: ZZW 51 km
Gewijzigd: 26-09-2020 18:50
Grotendeels bewolkt  
Grotendeels bewolkt  
   Wind: Westen 9.3 km/h
Wind: Westen 9.3 km/h
Temperatuur: 10°C
Voelt als: 9°C
Dauwpunt: 10°C
Vochtigheid: 100%
Barometer: 1002 hPa
Bewolking: Mostly Cloudy
Zicht: meer dan 10 km
Bewolking: Licht bewolkt 300 ft,
Grotendeels bewolkt 600 ft
EBCI 261650Z 27005KT 230V310 9999 FEW003 BKN006 10/10 Q1002 NOSIG
EBLG - Bierset/Liege, Belgium
Afstand tot: OZO 60 km
Gewijzigd: 26-09-2020 18:50
Gedeeltelijk bewolkt  
Gedeeltelijk bewolkt  
   Wind: WNW 16.7 km/h
Wind: WNW 16.7 km/h
Temperatuur: 11°C
Dauwpunt: 9°C
Vochtigheid: 88%
Barometer: 1001 hPa
Bewolking: Partly Cloudy
Zicht: meer dan 10 km
Bewolking: Gedeeltelijk bewolkt 1300 ft,
Gedeeltelijk bewolkt 4200 ft
EBLG 261650Z 29009KT 9999 SCT013 SCT042 11/09 Q1001 NOSIG

Script ontwikkeld door  Saratoga-weather.org Aangepast voor de template door  Weerstation Leuven

U vindt ons ook hier:

Het Weer Aktueel

Weather Underground

AWEKAS